Meteo Giornale » Osservazioni meteo Austria » Vienna-Schwechat

ore: 14:50 - Osservazioni Meteo Vienna-Schwechat
Lat. 48° 7' N Lon. 16° 34' E Alt. 183 metri s.l.m.

sereno Europe/Vienna

19 °C

Sereno

Temp. 24 Ore

0 °C

19 °C

Nord

3.7 Km/h

Dew point 1 °C

Umidità 29 %

Visibilità  10 Km

Il sole sorge alle ore 06:37

Il sole tramonta alle ore 19:20

Data e Ora Cielo e Fenomeni T °C DP °C Um. % Pres. hPa Vis. km Vento km/h
Oggi h: 14:50 sereno Sereno 19 1 29 1022 10 N 3.7
Oggi h: 14:20 sereno Sereno 19 1 29 1022 10 N 1.8
Oggi h: 13:50 sereno Sereno 18 -1 27 1023 10 N 5.5
Oggi h: 13:20 sereno Sereno 18 -1 27 1023 10 N 5.5
Oggi h: 12:50 sereno Sereno 17 1 33 1023 10 N 3.7
Oggi h: 12:20 sereno Sereno 16 0 33 1024 10 N 5.5
Oggi h: 11:50 sereno Sereno 15 0 35 1024 10 SE 7.4
Oggi h: 11:20 sereno Sereno 14 -1 35 1024 10 N 5.5
Oggi h: 10:50 sereno Sereno 13 -0 40 1024 10 N 5.5
Oggi h: 10:20 sereno Sereno 12 1 46 1024 10 N 5.5
Oggi h: 09:50 sereno Sereno 10 1 53 1024 10 N 5.5
Oggi h: 09:20 sereno Sereno 9 -0 53 1024 10 N 3.7
Oggi h: 08:50 sereno Sereno 7 -0 60 1024 10 N 3.7
Oggi h: 08:20 sereno Sereno 6 -1 60 1024 10 N 1.8
Oggi h: 07:50 sereno Sereno 5 -1 65 1024 10 N 1.8
Oggi h: 07:20 sereno Sereno 2 -2 74 1024 10 S 7.4
Oggi h: 06:50 sereno Sereno 2 -3 69 1024 10 S 7.4
Oggi h: 06:20 sereno Sereno 0 -3 80 1024 10 N 5.5
Oggi h: 05:50 sereno Sereno 1 -3 74 1024 10 N 5.5
Oggi h: 05:20 sereno Sereno 2 -3 69 1024 10 N 1.8
Oggi h: 04:50 sereno Sereno 2 -2 74 1024 10 N 3.7
Oggi h: 04:20 sereno Sereno 2 -2 74 1024 10 S 11.1
Oggi h: 03:50 sereno Sereno 1 -3 74 1024 10 S 11.1
Oggi h: 03:20 sereno Sereno 2 -2 74 1024 10 S 11.1
Oggi h: 02:50 sereno Sereno 1 -3 74 1024 10 S 9.3
Oggi h: 02:20 sereno Sereno 3 -2 69 1024 10 S 9.3
Oggi h: 01:50 sereno Sereno 3 -2 69 1024 10 S 9.3
Oggi h: 01:20 sereno Sereno 3 -2 69 1024 10 S 11.1
Oggi h: 00:50 sereno Sereno 3 -2 69 1025 10 S 11.1
Oggi h: 00:20 sereno Sereno 3 -2 69 1025 10 S 11.1
Ieri h: 23:50 sereno Sereno 4 -2 64 1025 10 S 9.3
Ieri h: 23:20 sereno Sereno 6 -3 52 1025 10 S 9.3
Ieri h: 22:50 sereno Sereno 6 -3 52 1025 10 N 5.5
Ieri h: 22:20 sereno Sereno 7 -4 45 1025 10 N 5.5
Ieri h: 21:50 sereno Sereno 8 -3 45 1025 10 N 5.5
Ieri h: 21:20 sereno Sereno 10 -4 36 1025 10 SO 11.1
Ieri h: 20:50 sereno Sereno 9 -4 39 1025 10 SO 7.4
Ieri h: 20:20 sereno Sereno 11 -3 37 1025 10 S/SO 7.4
Ieri h: 19:50 sereno Sereno 11 -3 37 1024 10 S/SO 7.4
Ieri h: 19:20 sereno Sereno 12 -4 32 1024 10 N 1.8
Ieri h: 18:50 sereno Sereno 13 -4 30 1024 10 N 1.8
Ieri h: 18:20 sereno Sereno 14 -4 28 1024 10 N 3.7
Ieri h: 17:50 sereno Sereno 14 -3 30 1024 10 N 5.5
Ieri h: 17:20 sereno Sereno 14 -4 28 1024 10 N 3.7
Ieri h: 16:50 sereno Sereno 14 -5 26 1025 10 N 5.5
Ieri h: 16:20 sereno Sereno 14 -4 28 1025 10 NE 7.4
Ieri h: 15:50 sereno Sereno 14 -3 30 1025 10 N 5.5